Tropical Cyclones
[Index]
Main Index Home Page Stock Weather Photos Extreme Storms Discussion Storm News and Storm Chasing Reports Tropical Cyclones / Hurricanes / Typhoons Weather Data and Links Wild Fires / Bushfires Weather Observation Techniques Weather Picture Catalogue Tornado Pictures and Reports Stock Video Footage and DVDs for sale
Season 2014-2015 Tropical Cyclone BANSI Track Map
Season 2014-2015 Summaries: [BoM-AU] [JTWC-AU] [JTWC-SIO] [JTWC-SPAC] [JTWC-SH]
<<- Previous TC | JTWC 2014-2015 Season | Next TC ->>

click for intensity scale information  Lat/long Grid: Show Hide

 Date Labels: Show Hide

Joint Typhoon Warning Centre Cyclone Data

Name: BANSI

09 Jan 2015 06:00 UTC to 18 Jan 2015 12:00 UTC

    date/time    lat    long     hPa   cat  kts
2015-01-09 06   19.0    52.8    1010         15          
2015-01-09 12   18.5    52.8    1006         20          
2015-01-09 18   18.0    52.9    1006         20          
2015-01-10 00   17.4    53.0    1007         20          
2015-01-10 06   16.8    53.1    1007         20          
2015-01-10 12   16.3    53.3    1004         25          
2015-01-10 18   15.8    53.8     996         35          
2015-01-11 00   15.9    54.5     996         35          
2015-01-11 06   16.3    54.8     989    1    45          
2015-01-11 12   16.8    54.9     982    2    55          
2015-01-11 18   17.2    55.0     974    2    65          
2015-01-11 18   17.2    55.0     974    2    65          
2015-01-12 00   17.2    55.3     959    3    85          
2015-01-12 00   17.2    55.3     959    3    85          
2015-01-12 00   17.2    55.3     959    3    85          
2015-01-12 06   17.2    55.9     948    4   100          
2015-01-12 06   17.2    55.9     948    4   100          
2015-01-12 06   17.2    55.9     948    4   100          
2015-01-12 09   17.3    56.3     948    4   100          
2015-01-12 09   17.3    56.3     948    4   100          
2015-01-12 09   17.3    56.3     948    4   100          
2015-01-12 12   17.5    56.7     937    4   115          
2015-01-12 12   17.5    56.7     937    4   115          
2015-01-12 12   17.5    56.7     937    4   115          
2015-01-12 18   17.6    56.9     926    5   130          
2015-01-12 18   17.6    56.9     926    5   130          
2015-01-12 18   17.6    56.9     926    5   130          
2015-01-13 00   17.5    57.3     918    5   140          
2015-01-13 00   17.5    57.3     918    5   140          
2015-01-13 00   17.5    57.3     918    5   140          
2015-01-13 06   17.3    57.6     926    5   130          
2015-01-13 06   17.3    57.6     926    5   130          
2015-01-13 06   17.3    57.6     926    5   130          
2015-01-13 12   17.2    57.9     933    4   120          
2015-01-13 12   17.2    57.9     933    4   120          
2015-01-13 12   17.2    57.9     933    4   120          
2015-01-13 18   17.2    58.1     941    4   110          
2015-01-13 18   17.2    58.1     941    4   110          
2015-01-13 18   17.2    58.1     941    4   110          
2015-01-14 00   17.2    58.4     944    4   105          
2015-01-14 00   17.2    58.4     944    4   105          
2015-01-14 00   17.2    58.4     944    4   105          
2015-01-14 06   17.2    58.7     956    3    90          
2015-01-14 06   17.2    58.7     956    3    90          
2015-01-14 06   17.2    58.7     956    3    90          
2015-01-14 12   17.3    59.1     956    3    90          
2015-01-14 12   17.3    59.1     956    3    90          
2015-01-14 12   17.3    59.1     956    3    90          
2015-01-14 18   17.5    59.7     956    3    90          
2015-01-14 18   17.5    59.7     956    3    90          
2015-01-14 18   17.5    59.7     956    3    90          
2015-01-15 00   17.7    60.2     944    4   105          
2015-01-15 00   17.7    60.2     944    4   105          
2015-01-15 00   17.7    60.2     944    4   105          
2015-01-15 06   17.9    60.8     937    4   115          
2015-01-15 06   17.9    60.8     937    4   115          
2015-01-15 06   17.9    60.8     937    4   115          
2015-01-15 12   18.0    61.7     937    4   115          
2015-01-15 12   18.0    61.7     937    4   115          
2015-01-15 12   18.0    61.7     937    4   115          
2015-01-15 18   18.3    62.9     937    4   115          
2015-01-15 18   18.3    62.9     937    4   115          
2015-01-15 18   18.3    62.9     937    4   115          
2015-01-16 00   19.1    64.2     933    4   120          
2015-01-16 00   19.1    64.2     933    4   120          
2015-01-16 00   19.1    64.2     933    4   120          
2015-01-16 06   20.2    65.5     926    5   130          
2015-01-16 06   20.2    65.5     926    5   130          
2015-01-16 06   20.2    65.5     926    5   130          
2015-01-16 12   21.6    66.3     929    5   125          
2015-01-16 12   21.6    66.3     929    5   125          
2015-01-16 12   21.6    66.3     929    5   125          
2015-01-16 18   22.5    67.0     937    4   115          
2015-01-16 18   22.5    67.0     937    4   115          
2015-01-16 18   22.5    67.0     937    4   115          
2015-01-17 00   23.3    67.8     941    4   110          
2015-01-17 00   23.3    67.8     941    4   110          
2015-01-17 00   23.3    67.8     941    4   110          
2015-01-17 06   23.9    68.8     952    3    95          
2015-01-17 06   23.9    68.8     952    3    95          
2015-01-17 06   23.9    68.8     952    3    95          
2015-01-17 12   24.3    69.9     952    3    95          
2015-01-17 12   24.3    69.9     952    3    95          
2015-01-17 12   24.3    69.9     952    3    95          
2015-01-17 18   24.7    71.7     967    3    75          
2015-01-17 18   24.7    71.7     967    3    75          
2015-01-17 18   24.7    71.7     967    3    75          
2015-01-18 00   24.8    73.7     978    2    60          
2015-01-18 00   24.8    73.7     978    2    60          
2015-01-18 06   25.4    76.3     982    2    55          
2015-01-18 06   25.4    76.3     982    2    55          
2015-01-18 12   25.8    78.7     985    1    50          
2015-01-18 12   25.8    78.7     985    1    50          
Winds are 1-min average.

Tropical cyclone tracks developed by Michael Bath using data from the Joint Typhoon Warning Centre Best Tracks and Google Maps.


[Australian Severe Weather index] [Copyright Notice] [Email Contacts] [Search This Site] [Privacy Policy]
Document: tropical_cyclone_bansi.htm Updated: 28 June 2017